Burlington, Ontario

8:34 AM EDT on August 27, 2014 (GMT -0400)
Tyandaga | Change Station
CLOSE
Current Station
Personal Weather Station
Location: Burlington, ONTARIO
Elevation: 253 ft
Nearby Weather Stations

Elev 253 ft 43.35 °N, 79.83 °W | Updated 45 seconds ago

Partly Cloudy
Partly Cloudy
66.9 °F
Feels Like 66.9 °F
N
0.0
Wind Variable Wind from NW
Gusts 5.0 mph

Today is forecast to be nearly the same temperature as yesterday.

Today
High -- | Low -- °F
--% Chance of Precip.
Yesterday
High -- | Low -- °F
Precip. -- in
6:37 AM 8:02 PM
Waxing Crescent, 3% visible
Pressure 30.07 in
Visibility 15.0 miles
Clouds Few 10000 ft
Few 22000 ft
Dew Point 56 °F
Humidity 69%
Rainfall 0.00 in
Snow Depth Not available.
UV 1 out of 12
Pollen Not available.
Air Quality Not available.
Flu Activity Not available.
METAR CYHM 271200Z 30006KT 15SM FEW100 FEW220 18/15 A3007 RMK AC1CI1 SLP181 DENSITY ALT 1100FT

More Conditions Fewer Conditions

Pressure 30.07 in
Visibility 15.0 miles
Clouds Few 10000 ft
Few 22000 ft
Dew Point 56 °F
Humidity 69%
Rainfall 0.00 in
Snow Depth Not available.
UV 1 out of 12
Pollen Not available.
Air Quality Not available.
Flu Activity Not available.
METAR CYHM 271200Z 30006KT 15SM FEW100 FEW220 18/15 A3007 RMK AC1CI1 SLP181 DENSITY ALT 1100FT

More Conditions Fewer Conditions

10-Day Weather Forecast

Almanac

Astronomy

Aug. 27, 2014 Rise Set
Actual Time 6:37 AM EDT 8:02 PM EDT
Civil Twilight 6:07 AM EDT 8:32 PM EDT
Nautical Twilight 5:32 AM EDT 9:08 PM EDT
Astronomical Twilight 4:53 AM EDT 9:46 PM EDT
Moon 8:36 AM EDT 8:48 PM EDT
Length of Visible Light 14h 24m
Length of Day
13h 25m
Tomorrow will be 2m 47s shorter.
Waxing Crescent, 3% of the Moon is Illuminated
Today
Waxing Crescent
Sep 2
First Quarter
Sep 8
Full
Sep 15
Last Quarter
Sep 24
New

Yesterday's Extremes

Country Highs Country Lows

Community

WunderPhotos

Upload Photos

1,747,676 photos uploaded!

Nearby

Snow Depth

Not available.

Earthquake Activity

City Distance Mag. Time & Date
No recent earthquake activity has been reported nearby.
Minimum magnitude displayed is 2.5.

Coastal Water Temperatures

Place Temperature
No Stations Reporting

Nearby Weather Stations